Language: 


Des rapports , des résumés tant et plus, au choix de chacun....


Données Historiques de Météogheer
Journalier Rapport pour Février 26, 2018 Unitée:  Les deux    Impériale   Métrique
Suivant Jour »
Journalier Hebdomadaire Mensuel Annuel Sur mesure
  Max: Min: Moyenne:
Température: 35.1 °F /  1.7 °C 23.9 °F /  -4.5 °C 28 °F /  -2.2 °C
Point de rosée: 19.4 °F /  -7.0 °C 10.4 °F /  -12.0 °C 14 °F /  -10 °C
Humidité: 79% 42% 58%
Vent: 22.6mph /  36.4km/h - 10.3mph /  16.5km/h
Rafales: 22.6mph /  36.4km/h - -
Vent- - NE
Pression: 30.4 in /  1029.0 hPa 30.3 in /  1024.9 hPa -
Pluie: 0 in /  0.0 mm    
Historical Graphs
 
 
Données tabulaires pour Février 26, 2018
Heure Température Point de rosée Pression Vent Vent Rafales Humidité Pluie Taux (Horaire) Conditions
00:00 27.9 °F /  -2.3 °C 10.4 °F /  -12.0 °C 30.3in /  1027.0hPa ENE 8.5mph /  13.7km/h 8.5mph /  13.7km/h 51% 0in /  0.0mm
00:05 27.9 °F /  -2.3 °C 10.4 °F /  -12.0 °C 30.3in /  1027.0hPa ENE 8.5mph /  13.7km/h 8.5mph /  13.7km/h 51% 0in /  0.0mm
00:10 27.9 °F /  -2.3 °C 10.4 °F /  -12.0 °C 30.3in /  1027.0hPa ENE 8.5mph /  13.7km/h 8.5mph /  13.7km/h 51% 0in /  0.0mm
00:15 27.9 °F /  -2.3 °C 12.2 °F /  -11.0 °C 30.3in /  1027.0hPa ENE 10.1mph /  16.3km/h 10.1mph /  16.3km/h 52% 0in /  0.0mm
00:20 27.7 °F /  -2.4 °C 12.2 °F /  -11.0 °C 30.3in /  1027.0hPa ENE 10.1mph /  16.3km/h 10.1mph /  16.3km/h 52% 0in /  0.0mm
00:25 27.7 °F /  -2.4 °C 12.2 °F /  -11.0 °C 30.3in /  1027.0hPa ENE 10.1mph /  16.3km/h 10.1mph /  16.3km/h 52% 0in /  0.0mm
00:30 27.5 °F /  -2.5 °C 10.4 °F /  -12.0 °C 30.3in /  1027.0hPa ENE 10.1mph /  16.3km/h 10.1mph /  16.3km/h 52% 0in /  0.0mm
00:35 27.5 °F /  -2.5 °C 10.4 °F /  -12.0 °C 30.3in /  1027.0hPa NE 11mph /  17.7km/h 11mph /  17.7km/h 52% 0in /  0.0mm
00:40 27.5 °F /  -2.5 °C 12.2 °F /  -11.0 °C 30.3in /  1027.0hPa NE 11mph /  17.7km/h 11mph /  17.7km/h 53% 0in /  0.0mm
00:45 27.5 °F /  -2.5 °C 12.2 °F /  -11.0 °C 30.3in /  1027.0hPa NE 11mph /  17.7km/h 11mph /  17.7km/h 53% 0in /  0.0mm
00:50 27.3 °F /  -2.6 °C 12.2 °F /  -11.0 °C 30.3in /  1027.0hPa NE 11mph /  17.7km/h 11mph /  17.7km/h 53% 0in /  0.0mm
00:56 27.1 °F /  -2.7 °C 12.2 °F /  -11.0 °C 30.3in /  1027.0hPa NE 11mph /  17.7km/h 11mph /  17.7km/h 54% 0in /  0.0mm
01:01 27 °F /  -2.8 °C 12.2 °F /  -11.0 °C 30.3in /  1027.0hPa NE 11mph /  17.7km/h 11mph /  17.7km/h 54% 0in /  0.0mm
01:06 27 °F /  -2.8 °C 12.2 °F /  -11.0 °C 30.3in /  1027.0hPa ENE 8.5mph /  13.7km/h 8.5mph /  13.7km/h 55% 0in /  0.0mm
01:11 27 °F /  -2.8 °C 12.2 °F /  -11.0 °C 30.3in /  1027.0hPa ENE 8.5mph /  13.7km/h 8.5mph /  13.7km/h 55% 0in /  0.0mm
01:16 27 °F /  -2.8 °C 12.2 °F /  -11.0 °C 30.3in /  1027.0hPa North 12.5mph /  20.1km/h 12.5mph /  20.1km/h 55% 0in /  0.0mm
01:21 27 °F /  -2.8 °C 12.2 °F /  -11.0 °C 30.3in /  1027.0hPa North 12.5mph /  20.1km/h 12.5mph /  20.1km/h 55% 0in /  0.0mm
01:26 26.8 °F /  -2.9 °C 12.2 °F /  -11.0 °C 30.3in /  1027.0hPa NNE 7.4mph /  11.9km/h 12.5mph /  20.1km/h 56% 0in /  0.0mm
01:31 26.6 °F /  -3.0 °C 12.2 °F /  -11.0 °C 30.3in /  1027.0hPa NNE 7.4mph /  11.9km/h 12.5mph /  20.1km/h 57% 0in /  0.0mm
01:36 26.8 °F /  -2.9 °C 12.2 °F /  -11.0 °C 30.3in /  1027.0hPa NNE 7.4mph /  11.9km/h 7.4mph /  11.9km/h 57% 0in /  0.0mm
01:41 26.6 °F /  -3.0 °C 12.2 °F /  -11.0 °C 30.3in /  1027.0hPa NNE 7.4mph /  11.9km/h 7.4mph /  11.9km/h 57% 0in /  0.0mm
01:46 26.4 °F /  -3.1 °C 12.2 °F /  -11.0 °C 30.3in /  1027.0hPa NNE 7.4mph /  11.9km/h 7.4mph /  11.9km/h 57% 0in /  0.0mm
01:51 26.4 °F /  -3.1 °C 12.2 °F /  -11.0 °C 30.3in /  1027.0hPa ENE 7.6mph /  12.2km/h 8.1mph /  13.0km/h 57% 0in /  0.0mm
01:56 26.4 °F /  -3.1 °C 12.2 °F /  -11.0 °C 30.3in /  1027.0hPa ENE 7.6mph /  12.2km/h 8.1mph /  13.0km/h 57% 0in /  0.0mm
02:01 26.4 °F /  -3.1 °C 12.2 °F /  -11.0 °C 30.3in /  1027.0hPa ENE 7.6mph /  12.2km/h 7.6mph /  12.2km/h 57% 0in /  0.0mm
02:06 26.4 °F /  -3.1 °C 12.2 °F /  -11.0 °C 30.3in /  1027.0hPa ENE 7.6mph /  12.2km/h 7.6mph /  12.2km/h 58% 0in /  0.0mm
02:11 26.2 °F /  -3.2 °C 12.2 °F /  -11.0 °C 30.3in /  1027.0hPa ENE 7.6mph /  12.2km/h 7.6mph /  12.2km/h 58% 0in /  0.0mm
02:16 26.4 °F /  -3.1 °C 12.2 °F /  -11.0 °C 30.3in /  1027.0hPa ENE 7.6mph /  12.2km/h 7.6mph /  12.2km/h 58% 0in /  0.0mm
02:21 26.4 °F /  -3.1 °C 12.2 °F /  -11.0 °C 30.3in /  1027.0hPa ENE 7.6mph /  12.2km/h 7.6mph /  12.2km/h 58% 0in /  0.0mm
02:26 26.2 °F /  -3.2 °C 12.2 °F /  -11.0 °C 30.3in /  1027.0hPa ENE 7.6mph /  12.2km/h 7.6mph /  12.2km/h 58% 0in /  0.0mm
02:31 26.2 °F /  -3.2 °C 12.2 °F /  -11.0 °C 30.3in /  1027.0hPa NE 10.5mph /  16.9km/h 10.5mph /  16.9km/h 58% 0in /  0.0mm
02:36 26.1 °F /  -3.3 °C 12.2 °F /  -11.0 °C 30.3in /  1027.0hPa NE 7.8mph /  12.6km/h 10.5mph /  16.9km/h 58% 0in /  0.0mm
02:41 26.1 °F /  -3.3 °C 12.2 °F /  -11.0 °C 30.3in /  1027.0hPa NE 7.8mph /  12.6km/h 10.5mph /  16.9km/h 59% 0in /  0.0mm
02:46 26.1 °F /  -3.3 °C 12.2 °F /  -11.0 °C 30.3in /  1027.0hPa NE 8.1mph /  13.0km/h 10.5mph /  16.9km/h 59% 0in /  0.0mm
02:51 26.1 °F /  -3.3 °C 12.2 °F /  -11.0 °C 30.3in /  1027.0hPa ENE 15.7mph /  25.3km/h 15.7mph /  25.3km/h 59% 0in /  0.0mm
02:56 26.1 °F /  -3.3 °C 12.2 °F /  -11.0 °C 30.3in /  1027.0hPa ENE 15.7mph /  25.3km/h 15.7mph /  25.3km/h 59% 0in /  0.0mm
03:01 26.1 °F /  -3.3 °C 12.2 °F /  -11.0 °C 30.3in /  1026.0hPa ENE 15.7mph /  25.3km/h 15.7mph /  25.3km/h 59% 0in /  0.0mm
03:07 25.9 °F /  -3.4 °C 14 °F /  -10.0 °C 30.3in /  1026.0hPa NE 7.6mph /  12.2km/h 15.7mph /  25.3km/h 60% 0in /  0.0mm
03:12 25.7 °F /  -3.5 °C 12.2 °F /  -11.0 °C 30.3in /  1026.0hPa ENE 7.6mph /  12.2km/h 15.7mph /  25.3km/h 60% 0in /  0.0mm
03:17 25.7 °F /  -3.5 °C 12.2 °F /  -11.0 °C 30.3in /  1027.0hPa ENE 7.6mph /  12.2km/h 8.5mph /  13.7km/h 61% 0in /  0.0mm
03:22 25.5 °F /  -3.6 °C 14 °F /  -10.0 °C 30.3in /  1027.0hPa ENE 7.6mph /  12.2km/h 7.6mph /  12.2km/h 62% 0in /  0.0mm
03:27 25.5 °F /  -3.6 °C 14 °F /  -10.0 °C 30.3in /  1027.0hPa ENE 11mph /  17.7km/h 11mph /  17.7km/h 62% 0in /  0.0mm
03:32 25.5 °F /  -3.6 °C 14 °F /  -10.0 °C 30.3in /  1027.0hPa NE 8.1mph /  13.0km/h 11mph /  17.7km/h 62% 0in /  0.0mm
03:37 25.7 °F /  -3.5 °C 12.2 °F /  -11.0 °C 30.3in /  1027.0hPa NE 8.1mph /  13.0km/h 11mph /  17.7km/h 61% 0in /  0.0mm
03:42 25.7 °F /  -3.5 °C 12.2 °F /  -11.0 °C 30.3in /  1027.0hPa NE 8.1mph /  13.0km/h 8.1mph /  13.0km/h 61% 0in /  0.0mm
03:47 25.5 °F /  -3.6 °C 12.2 °F /  -11.0 °C 30.3in /  1027.0hPa NE 10.1mph /  16.3km/h 10.1mph /  16.3km/h 61% 0in /  0.0mm
03:52 25.5 °F /  -3.6 °C 14 °F /  -10.0 °C 30.3in /  1027.0hPa NNE 9.6mph /  15.4km/h 10.1mph /  16.3km/h 62% 0in /  0.0mm
03:57 25.3 °F /  -3.7 °C 14 °F /  -10.0 °C 30.3in /  1027.0hPa NNE 9.6mph /  15.4km/h 10.1mph /  16.3km/h 62% 0in /  0.0mm
04:02 25.3 °F /  -3.7 °C 14 °F /  -10.0 °C 30.3in /  1027.0hPa NNE 9.6mph /  15.4km/h 9.6mph /  15.4km/h 62% 0in /  0.0mm
04:07 25.3 °F /  -3.7 °C 14 °F /  -10.0 °C 30.3in /  1027.0hPa ENE 7.6mph /  12.2km/h 10.5mph /  16.9km/h 62% 0in /  0.0mm
04:12 25.3 °F /  -3.7 °C 14 °F /  -10.0 °C 30.3in /  1027.0hPa NE 12.8mph /  20.6km/h 12.8mph /  20.6km/h 63% 0in /  0.0mm
04:17 25.3 °F /  -3.7 °C 14 °F /  -10.0 °C 30.3in /  1027.0hPa NE 8.5mph /  13.7km/h 12.8mph /  20.6km/h 63% 0in /  0.0mm
04:22 25.2 °F /  -3.8 °C 14 °F /  -10.0 °C 30.3in /  1027.0hPa NE 9.8mph /  15.8km/h 12.8mph /  20.6km/h 63% 0in /  0.0mm
04:27 25.2 °F /  -3.8 °C 14 °F /  -10.0 °C 30.3in /  1027.0hPa NE 9.8mph /  15.8km/h 9.8mph /  15.8km/h 64% 0in /  0.0mm
04:32 25 °F /  -3.9 °C 14 °F /  -10.0 °C 30.3in /  1026.0hPa NE 9.8mph /  15.8km/h 9.8mph /  15.8km/h 64% 0in /  0.0mm
04:37 25 °F /  -3.9 °C 14 °F /  -10.0 °C 30.3in /  1026.0hPa NE 9.8mph /  15.8km/h 9.8mph /  15.8km/h 65% 0in /  0.0mm
04:42 25.2 °F /  -3.8 °C 14 °F /  -10.0 °C 30.3in /  1026.0hPa NE 9.8mph /  15.8km/h 9.8mph /  15.8km/h 65% 0in /  0.0mm
04:47 25 °F /  -3.9 °C 14 °F /  -10.0 °C 30.3in /  1027.0hPa NE 9.8mph /  15.8km/h 9.8mph /  15.8km/h 65% 0in /  0.0mm
04:52 25 °F /  -3.9 °C 14 °F /  -10.0 °C 30.3in /  1027.0hPa NE 9.8mph /  15.8km/h 9.8mph /  15.8km/h 66% 0in /  0.0mm
04:57 25 °F /  -3.9 °C 14 °F /  -10.0 °C 30.3in /  1027.0hPa ENE 8.1mph /  13.0km/h 8.1mph /  13.0km/h 66% 0in /  0.0mm
05:02 24.8 °F /  -4.0 °C 14 °F /  -10.0 °C 30.3in /  1027.0hPa ENE 6.9mph /  11.1km/h 10.7mph /  17.2km/h 67% 0in /  0.0mm
05:07 24.8 °F /  -4.0 °C 14 °F /  -10.0 °C 30.3in /  1027.0hPa ENE 10.5mph /  16.9km/h 10.7mph /  17.2km/h 67% 0in /  0.0mm
05:12 24.8 °F /  -4.0 °C 14 °F /  -10.0 °C 30.3in /  1027.0hPa NE 15.9mph /  25.6km/h 15.9mph /  25.6km/h 68% 0in /  0.0mm
05:17 24.8 °F /  -4.0 °C 14 °F /  -10.0 °C 30.3in /  1027.0hPa ENE 8.7mph /  14.0km/h 15.9mph /  25.6km/h 68% 0in /  0.0mm
05:22 24.6 °F /  -4.1 °C 14 °F /  -10.0 °C 30.3in /  1027.0hPa NNE 7.8mph /  12.6km/h 15.9mph /  25.6km/h 69% 0in /  0.0mm
05:27 24.6 °F /  -4.1 °C 14 °F /  -10.0 °C 30.3in /  1027.0hPa NE 10.1mph /  16.3km/h 10.1mph /  16.3km/h 69% 0in /  0.0mm
05:32 24.4 °F /  -4.2 °C 14 °F /  -10.0 °C 30.3in /  1027.0hPa NNE 8.7mph /  14.0km/h 10.7mph /  17.2km/h 69% 0in /  0.0mm
05:37 24.4 °F /  -4.2 °C 15.8 °F /  -9.0 °C 30.3in /  1027.0hPa ENE 7.8mph /  12.6km/h 10.7mph /  17.2km/h 70% 0in /  0.0mm
05:43 24.4 °F /  -4.2 °C 15.8 °F /  -9.0 °C 30.3in /  1027.0hPa ENE 7.8mph /  12.6km/h 8.7mph /  14.0km/h 70% 0in /  0.0mm
05:48 24.4 °F /  -4.2 °C 15.8 °F /  -9.0 °C 30.3in /  1027.0hPa ENE 7.8mph /  12.6km/h 7.8mph /  12.6km/h 71% 0in /  0.0mm
05:53 24.4 °F /  -4.2 °C 15.8 °F /  -9.0 °C 30.3in /  1027.0hPa ENE 7.8mph /  12.6km/h 7.8mph /  12.6km/h 71% 0in /  0.0mm
05:58 24.4 °F /  -4.2 °C 15.8 °F /  -9.0 °C 30.3in /  1027.0hPa NNE 7.6mph /  12.2km/h 8.5mph /  13.7km/h 71% 0in /  0.0mm
06:03 24.4 °F /  -4.2 °C 15.8 °F /  -9.0 °C 30.3in /  1027.0hPa NE 9.8mph /  15.8km/h 9.8mph /  15.8km/h 71% 0in /  0.0mm
06:08 24.4 °F /  -4.2 °C 15.8 °F /  -9.0 °C 30.3in /  1027.0hPa NE 9.8mph /  15.8km/h 9.8mph /  15.8km/h 71% 0in /  0.0mm
06:13 24.4 °F /  -4.2 °C 15.8 °F /  -9.0 °C 30.3in /  1027.0hPa NE 9.8mph /  15.8km/h 9.8mph /  15.8km/h 72% 0in /  0.0mm
06:18 24.3 °F /  -4.3 °C 15.8 °F /  -9.0 °C 30.3in /  1027.0hPa NE 9.8mph /  15.8km/h 9.8mph /  15.8km/h 72% 0in /  0.0mm
06:23 24.3 °F /  -4.3 °C 15.8 °F /  -9.0 °C 30.3in /  1027.0hPa NE 6.7mph /  10.8km/h 9.8mph /  15.8km/h 72% 0in /  0.0mm
06:28 24.3 °F /  -4.3 °C 15.8 °F /  -9.0 °C 30.3in /  1027.0hPa NE 8.7mph /  14.0km/h 9.2mph /  14.8km/h 72% 0in /  0.0mm
06:33 24.3 °F /  -4.3 °C 15.8 °F /  -9.0 °C 30.3in /  1027.0hPa NE 8.7mph /  14.0km/h 8.7mph /  14.0km/h 72% 0in /  0.0mm
06:38 24.3 °F /  -4.3 °C 15.8 °F /  -9.0 °C 30.3in /  1027.0hPa NE 10.5mph /  16.9km/h 11mph /  17.7km/h 73% 0in /  0.0mm
06:43 24.4 °F /  -4.2 °C 15.8 °F /  -9.0 °C 30.3in /  1027.0hPa NE 12.3mph /  19.8km/h 12.3mph /  19.8km/h 73% 0in /  0.0mm
06:48 24.4 °F /  -4.2 °C 15.8 °F /  -9.0 °C 30.3in /  1027.0hPa ENE 8.5mph /  13.7km/h 12.3mph /  19.8km/h 73% 0in /  0.0mm
06:53 24.3 °F /  -4.3 °C 15.8 °F /  -9.0 °C 30.3in /  1027.0hPa ENE 8.5mph /  13.7km/h 12.3mph /  19.8km/h 73% 0in /  0.0mm
06:58 24.3 °F /  -4.3 °C 15.8 °F /  -9.0 °C 30.3in /  1027.0hPa ENE 14.8mph /  23.8km/h 14.8mph /  23.8km/h 74% 0in /  0.0mm
07:03 24.4 °F /  -4.2 °C 15.8 °F /  -9.0 °C 30.3in /  1027.0hPa ENE 14.8mph /  23.8km/h 14.8mph /  23.8km/h 74% 0in /  0.0mm
07:08 24.4 °F /  -4.2 °C 15.8 °F /  -9.0 °C 30.3in /  1027.0hPa ENE 14.8mph /  23.8km/h 14.8mph /  23.8km/h 74% 0in /  0.0mm
07:13 24.4 °F /  -4.2 °C 17.6 °F /  -8.0 °C 30.3in /  1027.0hPa ENE 14.8mph /  23.8km/h 14.8mph /  23.8km/h 75% 0in /  0.0mm
07:19 24.4 °F /  -4.2 °C 17.6 °F /  -8.0 °C 30.3in /  1027.0hPa ENE 14.8mph /  23.8km/h 14.8mph /  23.8km/h 75% 0in /  0.0mm
07:24 24.3 °F /  -4.3 °C 15.8 °F /  -9.0 °C 30.3in /  1027.0hPa NNE 10.3mph /  16.6km/h 10.3mph /  16.6km/h 75% 0in /  0.0mm
07:29 24.1 °F /  -4.4 °C 15.8 °F /  -9.0 °C 30.3in /  1027.0hPa NNE 10.3mph /  16.6km/h 10.3mph /  16.6km/h 75% 0in /  0.0mm
07:34 24.1 °F /  -4.4 °C 15.8 °F /  -9.0 °C 30.3in /  1027.0hPa NNE 10.3mph /  16.6km/h 10.3mph /  16.6km/h 76% 0in /  0.0mm
07:39 23.9 °F /  -4.5 °C 15.8 °F /  -9.0 °C 30.3in /  1027.0hPa NNE 10.3mph /  16.6km/h 10.3mph /  16.6km/h 76% 0in /  0.0mm
07:44 23.9 °F /  -4.5 °C 15.8 °F /  -9.0 °C 30.4in /  1028.0hPa NE 9.8mph /  15.8km/h 10.3mph /  16.6km/h 77% 0in /  0.0mm
07:49 23.9 °F /  -4.5 °C 15.8 °F /  -9.0 °C 30.4in /  1028.0hPa NE 9.8mph /  15.8km/h 9.8mph /  15.8km/h 77% 0in /  0.0mm
07:54 23.9 °F /  -4.5 °C 15.8 °F /  -9.0 °C 30.4in /  1028.0hPa NNE 10.1mph /  16.3km/h 11mph /  17.7km/h 78% 0in /  0.0mm
07:59 23.9 °F /  -4.5 °C 15.8 °F /  -9.0 °C 30.4in /  1028.0hPa NNE 10.3mph /  16.6km/h 11mph /  17.7km/h 78% 0in /  0.0mm
08:04 23.9 °F /  -4.5 °C 17.6 °F /  -8.0 °C 30.4in /  1028.0hPa NE 8.7mph /  14.0km/h 12.5mph /  20.1km/h 79% 0in /  0.0mm
08:09 24.1 °F /  -4.4 °C 17.6 °F /  -8.0 °C 30.4in /  1028.0hPa NE 11.4mph /  18.3km/h 12.5mph /  20.1km/h 79% 0in /  0.0mm
08:14 24.3 °F /  -4.3 °C 17.6 °F /  -8.0 °C 30.4in /  1029.0hPa NE 8.1mph /  13.0km/h 11.4mph /  18.3km/h 79% 0in /  0.0mm
08:19 24.4 °F /  -4.2 °C 17.6 °F /  -8.0 °C 30.4in /  1029.0hPa NE 5.6mph /  9.0km/h 11.4mph /  18.3km/h 79% 0in /  0.0mm
08:24 24.6 °F /  -4.1 °C 17.6 °F /  -8.0 °C 30.4in /  1029.0hPa ENE 8.7mph /  14.0km/h 12.3mph /  19.8km/h 79% 0in /  0.0mm
08:29 24.6 °F /  -4.1 °C 17.6 °F /  -8.0 °C 30.4in /  1029.0hPa ENE 12.1mph /  19.5km/h 13.2mph /  21.2km/h 79% 0in /  0.0mm
08:35 25 °F /  -3.9 °C 17.6 °F /  -8.0 °C 30.4in /  1029.0hPa NE 12.3mph /  19.8km/h 13.2mph /  21.2km/h 78% 0in /  0.0mm
08:40 25.2 °F /  -3.8 °C 19.4 °F /  -7.0 °C 30.4in /  1029.0hPa ENE 10.5mph /  16.9km/h 13.2mph /  21.2km/h 78% 0in /  0.0mm
08:45 25.3 °F /  -3.7 °C 19.4 °F /  -7.0 °C 30.4in /  1029.0hPa NE 9.8mph /  15.8km/h 15.4mph /  24.8km/h 77% 0in /  0.0mm
08:50 25.3 °F /  -3.7 °C 17.6 °F /  -8.0 °C 30.4in /  1029.0hPa ENE 11.2mph /  18.0km/h 15.4mph /  24.8km/h 76% 0in /  0.0mm
08:55 25.7 °F /  -3.5 °C 17.6 °F /  -8.0 °C 30.4in /  1029.0hPa NNE 10.3mph /  16.6km/h 13.9mph /  22.4km/h 76% 0in /  0.0mm
09:00 25.9 °F /  -3.4 °C 19.4 °F /  -7.0 °C 30.4in /  1029.0hPa ENE 13.4mph /  21.6km/h 15.2mph /  24.5km/h 75% 0in /  0.0mm
09:05 26.1 °F /  -3.3 °C 19.4 °F /  -7.0 °C 30.4in /  1029.0hPa NE 10.5mph /  16.9km/h 15.2mph /  24.5km/h 75% 0in /  0.0mm
09:10 26.2 °F /  -3.2 °C 17.6 °F /  -8.0 °C 30.4in /  1029.0hPa ENE 10.7mph /  17.2km/h 15.2mph /  24.5km/h 74% 0in /  0.0mm
09:15 26.6 °F /  -3.0 °C 19.4 °F /  -7.0 °C 30.4in /  1029.0hPa East 8.7mph /  14.0km/h 14.1mph /  22.7km/h 74% 0in /  0.0mm
09:20 26.6 °F /  -3.0 °C 17.6 °F /  -8.0 °C 30.4in /  1029.0hPa East 8.1mph /  13.0km/h 13mph /  20.9km/h 73% 0in /  0.0mm
09:25 27 °F /  -2.8 °C 17.6 °F /  -8.0 °C 30.4in /  1029.0hPa NE 10.3mph /  16.6km/h 12.8mph /  20.6km/h 72% 0in /  0.0mm
09:30 27 °F /  -2.8 °C 17.6 °F /  -8.0 °C 30.4in /  1029.0hPa NNE 10.3mph /  16.6km/h 13.2mph /  21.2km/h 72% 0in /  0.0mm
09:36 27.3 °F /  -2.6 °C 19.4 °F /  -7.0 °C 30.4in /  1029.0hPa ENE 11mph /  17.7km/h 13.2mph /  21.2km/h 72% 0in /  0.0mm
09:41 27.3 °F /  -2.6 °C 17.6 °F /  -8.0 °C 30.4in /  1029.0hPa NE 8.5mph /  13.7km/h 15.2mph /  24.5km/h 71% 0in /  0.0mm
09:46 27.7 °F /  -2.4 °C 19.4 °F /  -7.0 °C 30.4in /  1029.0hPa ENE 11mph /  17.7km/h 15.2mph /  24.5km/h 71% 0in /  0.0mm
09:51 27.9 °F /  -2.3 °C 17.6 °F /  -8.0 °C 30.4in /  1029.0hPa NE 13.2mph /  21.2km/h 17.2mph /  27.7km/h 69% 0in /  0.0mm
09:56 27.9 °F /  -2.3 °C 17.6 °F /  -8.0 °C 30.4in /  1029.0hPa NE 12.5mph /  20.1km/h 17.2mph /  27.7km/h 69% 0in /  0.0mm
10:01 28.2 °F /  -2.1 °C 17.6 °F /  -8.0 °C 30.4in /  1029.0hPa ENE 10.3mph /  16.6km/h 13.9mph /  22.4km/h 68% 0in /  0.0mm
10:06 28.6 °F /  -1.9 °C 17.6 °F /  -8.0 °C 30.4in /  1029.0hPa NE 7.4mph /  11.9km/h 17mph /  27.4km/h 66% 0in /  0.0mm
10:11 28.6 °F /  -1.9 °C 17.6 °F /  -8.0 °C 30.4in /  1029.0hPa East 12.8mph /  20.6km/h 17mph /  27.4km/h 66% 0in /  0.0mm
10:16 28.9 °F /  -1.7 °C 17.6 °F /  -8.0 °C 30.4in /  1029.0hPa ENE 10.3mph /  16.6km/h 14.5mph /  23.3km/h 66% 0in /  0.0mm
10:21 29.3 °F /  -1.5 °C 17.6 °F /  -8.0 °C 30.4in /  1029.0hPa East 9.8mph /  15.8km/h 14.5mph /  23.3km/h 65% 0in /  0.0mm
10:26 29.7 °F /  -1.3 °C 17.6 °F /  -8.0 °C 30.4in /  1029.0hPa NE 6mph /  9.7km/h 13mph /  20.9km/h 64% 0in /  0.0mm
10:31 29.7 °F /  -1.3 °C 17.6 °F /  -8.0 °C 30.4in /  1029.0hPa ENE 8.7mph /  14.0km/h 13mph /  20.9km/h 64% 0in /  0.0mm
10:36 29.5 °F /  -1.4 °C 17.6 °F /  -8.0 °C 30.4in /  1029.0hPa NE 13mph /  20.9km/h 13.9mph /  22.4km/h 62% 0in /  0.0mm
10:41 29.3 °F /  -1.5 °C 15.8 °F /  -9.0 °C 30.4in /  1029.0hPa NE 7.8mph /  12.6km/h 13.9mph /  22.4km/h 62% 0in /  0.0mm
10:46 29.3 °F /  -1.5 °C 15.8 °F /  -9.0 °C 30.4in /  1029.0hPa ENE 10.7mph /  17.2km/h 12.3mph /  19.8km/h 62% 0in /  0.0mm
10:51 28.8 °F /  -1.8 °C 15.8 °F /  -9.0 °C 30.4in /  1029.0hPa ENE 8.1mph /  13.0km/h 14.8mph /  23.8km/h 62% 0in /  0.0mm
10:56 28.8 °F /  -1.8 °C 15.8 °F /  -9.0 °C 30.4in /  1029.0hPa NE 6mph /  9.7km/h 14.8mph /  23.8km/h 62% 0in /  0.0mm
11:01 28.6 °F /  -1.9 °C 15.8 °F /  -9.0 °C 30.4in /  1029.0hPa NE 8.9mph /  14.3km/h 12.3mph /  19.8km/h 63% 0in /  0.0mm
11:06 28.4 °F /  -2.0 °C 15.8 °F /  -9.0 °C 30.4in /  1029.0hPa ENE 10.5mph /  16.9km/h 12.3mph /  19.8km/h 63% 0in /  0.0mm
11:11 28.4 °F /  -2.0 °C 15.8 °F /  -9.0 °C 30.4in /  1029.0hPa ENE 10.3mph /  16.6km/h 13mph /  20.9km/h 63% 0in /  0.0mm
11:16 28.6 °F /  -1.9 °C 15.8 °F /  -9.0 °C 30.4in /  1029.0hPa NE 10.5mph /  16.9km/h 13.4mph /  21.6km/h 63% 0in /  0.0mm
11:21 28.8 °F /  -1.8 °C 15.8 °F /  -9.0 °C 30.4in /  1029.0hPa NE 7.8mph /  12.6km/h 14.5mph /  23.3km/h 62% 0in /  0.0mm
11:26 29.1 °F /  -1.6 °C 15.8 °F /  -9.0 °C 30.4in /  1029.0hPa ENE 7.4mph /  11.9km/h 14.5mph /  23.3km/h 61% 0in /  0.0mm
11:31 30.2 °F /  -1.0 °C 17.6 °F /  -8.0 °C 30.4in /  1029.0hPa NE 7.8mph /  12.6km/h 13.9mph /  22.4km/h 63% 0in /  0.0mm
11:36 29.8 °F /  -1.2 °C 15.8 °F /  -9.0 °C 30.4in /  1029.0hPa ENE 10.1mph /  16.3km/h 14.8mph /  23.8km/h 59% 0in /  0.0mm
11:41 29.5 °F /  -1.4 °C 15.8 °F /  -9.0 °C 30.4in /  1029.0hPa NE 9.6mph /  15.4km/h 14.8mph /  23.8km/h 57% 0in /  0.0mm
11:46 29.5 °F /  -1.4 °C 15.8 °F /  -9.0 °C 30.4in /  1029.0hPa NNE 10.7mph /  17.2km/h 12.3mph /  19.8km/h 57% 0in /  0.0mm
11:51 29.5 °F /  -1.4 °C 15.8 °F /  -9.0 °C 30.4in /  1029.0hPa NNE 6mph /  9.7km/h 12.3mph /  19.8km/h 58% 0in /  0.0mm
11:56 29.5 °F /  -1.4 °C 15.8 °F /  -9.0 °C 30.4in /  1029.0hPa NE 8.9mph /  14.3km/h 15.2mph /  24.5km/h 58% 0in /  0.0mm
12:02 29.5 °F /  -1.4 °C 15.8 °F /  -9.0 °C 30.4in /  1029.0hPa NE 9.8mph /  15.8km/h 15.2mph /  24.5km/h 57% 0in /  0.0mm
12:07 30.2 °F /  -1.0 °C 15.8 °F /  -9.0 °C 30.4in /  1029.0hPa NE 8.1mph /  13.0km/h 10.3mph /  16.6km/h 58% 0in /  0.0mm
12:12 30.2 °F /  -1.0 °C 15.8 °F /  -9.0 °C 30.4in /  1029.0hPa NNE 7.6mph /  12.2km/h 13mph /  20.9km/h 56% 0in /  0.0mm
12:17 29.7 °F /  -1.3 °C 14 °F /  -10.0 °C 30.4in /  1028.0hPa East 10.3mph /  16.6km/h 13mph /  20.9km/h 55% 0in /  0.0mm
12:22 30.2 °F /  -1.0 °C 14 °F /  -10.0 °C 30.4in /  1028.0hPa NNE 9.8mph /  15.8km/h 11.4mph /  18.3km/h 55% 0in /  0.0mm
12:27 30.2 °F /  -1.0 °C 14 °F /  -10.0 °C 30.4in /  1028.0hPa NE 10.7mph /  17.2km/h 13mph /  20.9km/h 54% 0in /  0.0mm
12:32 30.2 °F /  -1.0 °C 14 °F /  -10.0 °C 30.4in /  1028.0hPa ENE 7.6mph /  12.2km/h 14.8mph /  23.8km/h 54% 0in /  0.0mm
12:37 31.1 °F /  -0.5 °C 14 °F /  -10.0 °C 30.4in /  1028.0hPa NNE 17.4mph /  28.0km/h 19.5mph /  31.4km/h 53% 0in /  0.0mm
12:42 31.6 °F /  -0.2 °C 15.8 °F /  -9.0 °C 30.4in /  1028.0hPa NNE 13.2mph /  21.2km/h 20.1mph /  32.3km/h 52% 0in /  0.0mm
12:47 31.5 °F /  -0.3 °C 14 °F /  -10.0 °C 30.3in /  1027.0hPa NE 11mph /  17.7km/h 21mph /  33.8km/h 50% 0in /  0.0mm
12:52 30.9 °F /  -0.6 °C 12.2 °F /  -11.0 °C 30.3in /  1027.0hPa ENE 10.3mph /  16.6km/h 21mph /  33.8km/h 49% 0in /  0.0mm
12:57 32.2 °F /  0.1 °C 17.6 °F /  -8.0 °C 30.3in /  1027.0hPa NE 9.6mph /  15.4km/h 16.1mph /  25.9km/h 52% 0in /  0.0mm
13:02 33.1 °F /  0.6 °C 17.6 °F /  -8.0 °C 30.4in /  1028.0hPa NE 15.9mph /  25.6km/h 19.9mph /  32.0km/h 51% 0in /  0.0mm
13:07 32.4 °F /  0.2 °C 15.8 °F /  -9.0 °C 30.4in /  1028.0hPa ENE 13mph /  20.9km/h 19.9mph /  32.0km/h 50% 0in /  0.0mm
13:12 31.3 °F /  -0.4 °C 14 °F /  -10.0 °C 30.4in /  1028.0hPa ENE 11.2mph /  18.0km/h 19.7mph /  31.7km/h 50% 0in /  0.0mm
13:17 31.5 °F /  -0.3 °C 14 °F /  -10.0 °C 30.3in /  1027.0hPa NE 10.1mph /  16.3km/h 17.2mph /  27.7km/h 51% 0in /  0.0mm
13:22 31.5 °F /  -0.3 °C 14 °F /  -10.0 °C 30.3in /  1027.0hPa ENE 12.5mph /  20.1km/h 17mph /  27.4km/h 50% 0in /  0.0mm
13:27 32.5 °F /  0.3 °C 15.8 °F /  -9.0 °C 30.3in /  1027.0hPa East 16.8mph /  27.0km/h 19mph /  30.6km/h 49% 0in /  0.0mm
13:32 33.3 °F /  0.7 °C 15.8 °F /  -9.0 °C 30.3in /  1027.0hPa NE 11.2mph /  18.0km/h 19mph /  30.6km/h 49% 0in /  0.0mm
13:37 34.2 °F /  1.2 °C 17.6 °F /  -8.0 °C 30.3in /  1027.0hPa NE 9.6mph /  15.4km/h 16.8mph /  27.0km/h 50% 0in /  0.0mm
13:42 34.7 °F /  1.5 °C 17.6 °F /  -8.0 °C 30.3in /  1027.0hPa NE 10.7mph /  17.2km/h 17.2mph /  27.7km/h 48% 0in /  0.0mm
13:47 35.1 °F /  1.7 °C 17.6 °F /  -8.0 °C 30.3in /  1027.0hPa ENE 12.5mph /  20.1km/h 17.2mph /  27.7km/h 48% 0in /  0.0mm
13:52 34.5 °F /  1.4 °C 15.8 °F /  -9.0 °C 30.3in /  1027.0hPa NE 13.2mph /  21.2km/h 17.2mph /  27.7km/h 47% 0in /  0.0mm
13:57 33.8 °F /  1.0 °C 15.8 °F /  -9.0 °C 30.3in /  1027.0hPa NE 15.4mph /  24.8km/h 19.5mph /  31.4km/h 45% 0in /  0.0mm
14:02 33.8 °F /  1.0 °C 15.8 °F /  -9.0 °C 30.3in /  1027.0hPa NE 10.5mph /  16.9km/h 19.7mph /  31.7km/h 45% 0in /  0.0mm
14:07 32.7 °F /  0.4 °C 14 °F /  -10.0 °C 30.3in /  1027.0hPa ENE 12.8mph /  20.6km/h 19.7mph /  31.7km/h 44% 0in /  0.0mm
14:12 32.5 °F /  0.3 °C 14 °F /  -10.0 °C 30.3in /  1027.0hPa ENE 10.3mph /  16.6km/h 15.2mph /  24.5km/h 44% 0in /  0.0mm
14:17 32.7 °F /  0.4 °C 14 °F /  -10.0 °C 30.3in /  1027.0hPa NE 10.5mph /  16.9km/h 16.1mph /  25.9km/h 44% 0in /  0.0mm
14:22 33.8 °F /  1.0 °C 15.8 °F /  -9.0 °C 30.3in /  1027.0hPa East 11mph /  17.7km/h 16.1mph /  25.9km/h 45% 0in /  0.0mm
14:28 34.3 °F /  1.3 °C 15.8 °F /  -9.0 °C 30.3in /  1027.0hPa NE 12.8mph /  20.6km/h 16.1mph /  25.9km/h 45% 0in /  0.0mm
14:33 33.4 °F /  0.8 °C 14 °F /  -10.0 °C 30.3in /  1027.0hPa NNE 17mph /  27.4km/h 17mph /  27.4km/h 43% 0in /  0.0mm
14:38 34.2 °F /  1.2 °C 15.8 °F /  -9.0 °C 30.3in /  1027.0hPa NE 10.1mph /  16.3km/h 19.9mph /  32.0km/h 44% 0in /  0.0mm
14:43 34.5 °F /  1.4 °C 14 °F /  -10.0 °C 30.3in /  1027.0hPa NE 12.8mph /  20.6km/h 19.9mph /  32.0km/h 43% 0in /  0.0mm
14:48 34.9 °F /  1.6 °C 14 °F /  -10.0 °C 30.3in /  1026.0hPa ENE 10.5mph /  16.9km/h 14.8mph /  23.8km/h 43% 0in /  0.0mm
14:53 34.5 °F /  1.4 °C 14 °F /  -10.0 °C 30.3in /  1026.0hPa NE 17.2mph /  27.7km/h 22.4mph /  36.0km/h 42% 0in /  0.0mm
14:58 34.3 °F /  1.3 °C 14 °F /  -10.0 °C 30.3in /  1026.0hPa NE 17.4mph /  28.0km/h 22.4mph /  36.0km/h 43% 0in /  0.0mm
15:03 33.3 °F /  0.7 °C 12.2 °F /  -11.0 °C 30.3in /  1027.0hPa NE 13.2mph /  21.2km/h 17.7mph /  28.5km/h 42% 0in /  0.0mm
15:08 32.7 °F /  0.4 °C 12.2 °F /  -11.0 °C 30.3in /  1027.0hPa ENE 17.4mph /  28.0km/h 20.6mph /  33.1km/h 43% 0in /  0.0mm
15:13 33.3 °F /  0.7 °C 14 °F /  -10.0 °C 30.3in /  1027.0hPa NE 15.2mph /  24.5km/h 20.6mph /  33.1km/h 43% 0in /  0.0mm
15:18 33.6 °F /  0.9 °C 14 °F /  -10.0 °C 30.3in /  1027.0hPa NNE 14.8mph /  23.8km/h 17.4mph /  28.0km/h 44% 0in /  0.0mm
15:23 33.4 °F /  0.8 °C 14 °F /  -10.0 °C 30.3in /  1027.0hPa NE 12.1mph /  19.5km/h 17mph /  27.4km/h 43% 0in /  0.0mm
15:28 33.1 °F /  0.6 °C 14 °F /  -10.0 °C 30.3in /  1027.0hPa ENE 14.8mph /  23.8km/h 14.8mph /  23.8km/h 43% 0in /  0.0mm
15:33 33.4 °F /  0.8 °C 14 °F /  -10.0 °C 30.3in /  1027.0hPa ESE 11mph /  17.7km/h 14.8mph /  23.8km/h 42% 0in /  0.0mm
15:38 34 °F /  1.1 °C 14 °F /  -10.0 °C 30.3in /  1027.0hPa East 7.8mph /  12.6km/h 16.6mph /  26.7km/h 42% 0in /  0.0mm
15:43 34.2 °F /  1.2 °C 14 °F /  -10.0 °C 30.3in /  1027.0hPa NE 17mph /  27.4km/h 17mph /  27.4km/h 43% 0in /  0.0mm
15:48 33.1 °F /  0.6 °C 14 °F /  -10.0 °C 30.3in /  1027.0hPa NNE 12.8mph /  20.6km/h 17mph /  27.4km/h 43% 0in /  0.0mm
15:53 32.2 °F /  0.1 °C 12.2 °F /  -11.0 °C 30.3in /  1027.0hPa ENE 11.4mph /  18.3km/h 19.9mph /  32.0km/h 43% 0in /  0.0mm
15:58 32.2 °F /  0.1 °C 12.2 °F /  -11.0 °C 30.3in /  1027.0hPa NE 15.2mph /  24.5km/h 19.9mph /  32.0km/h 43% 0in /  0.0mm
16:03 32.2 °F /  0.1 °C 12.2 °F /  -11.0 °C 30.3in /  1027.0hPa NE 14.3mph /  23.0km/h 17.7mph /  28.5km/h 43% 0in /  0.0mm
16:08 32 °F /  0.0 °C 10.4 °F /  -12.0 °C 30.3in /  1027.0hPa ENE 9.4mph /  15.1km/h 17.7mph /  28.5km/h 43% 0in /  0.0mm
16:13 31.8 °F /  -0.1 °C 10.4 °F /  -12.0 °C 30.3in /  1027.0hPa NE 22.6mph /  36.4km/h 22.6mph /  36.4km/h 43% 0in /  0.0mm
16:18 31.6 °F /  -0.2 °C 10.4 °F /  -12.0 °C 30.3in /  1026.0hPa NE 13.9mph /  22.4km/h 22.6mph /  36.4km/h 43% 0in /  0.0mm
16:23 31.6 °F /  -0.2 °C 10.4 °F /  -12.0 °C 30.3in /  1026.0hPa NE 10.7mph /  17.2km/h 22.6mph /  36.4km/h 43% 0in /  0.0mm
16:28 31.8 °F /  -0.1 °C 10.4 °F /  -12.0 °C 30.3in /  1026.0hPa NNE 10.7mph /  17.2km/h 17mph /  27.4km/h 43% 0in /  0.0mm
16:33 32 °F /  0.0 °C 12.2 °F /  -11.0 °C 30.3in /  1026.0hPa ENE 12.8mph /  20.6km/h 17mph /  27.4km/h 44% 0in /  0.0mm
16:38 31.5 °F /  -0.3 °C 10.4 °F /  -12.0 °C 30.3in /  1026.0hPa NE 12.5mph /  20.1km/h 19.5mph /  31.4km/h 44% 0in /  0.0mm
16:44 31.3 °F /  -0.4 °C 10.4 °F /  -12.0 °C 30.3in /  1026.0hPa NNE 13.4mph /  21.6km/h 19.5mph /  31.4km/h 44% 0in /  0.0mm
16:49 30.9 °F /  -0.6 °C 10.4 °F /  -12.0 °C 30.3in /  1026.0hPa NE 11.9mph /  19.1km/h 17.4mph /  28.0km/h 44% 0in /  0.0mm
16:54 30.7 °F /  -0.7 °C 10.4 °F /  -12.0 °C 30.3in /  1026.0hPa NE 16.6mph /  26.7km/h 17mph /  27.4km/h 45% 0in /  0.0mm
16:59 30.9 °F /  -0.6 °C 12.2 °F /  -11.0 °C 30.3in /  1026.0hPa NNE 10.5mph /  16.9km/h 17mph /  27.4km/h 46% 0in /  0.0mm
17:04 31.1 °F /  -0.5 °C 14 °F /  -10.0 °C 30.3in /  1026.0hPa NE 10.7mph /  17.2km/h 18.8mph /  30.2km/h 50% 0in /  0.0mm
17:09 30.6 °F /  -0.8 °C 14 °F /  -10.0 °C 30.3in /  1026.0hPa NE 12.8mph /  20.6km/h 18.8mph /  30.2km/h 51% 0in /  0.0mm
17:14 30.6 °F /  -0.8 °C 14 °F /  -10.0 °C 30.3in /  1026.0hPa NE 13mph /  20.9km/h 17.4mph /  28.0km/h 51% 0in /  0.0mm
17:19 30.4 °F /  -0.9 °C 14 °F /  -10.0 °C 30.3in /  1026.0hPa NE 10.1mph /  16.3km/h 15.2mph /  24.5km/h 52% 0in /  0.0mm
17:24 30.2 °F /  -1.0 °C 14 °F /  -10.0 °C 30.3in /  1026.0hPa NE 12.3mph /  19.8km/h 15.2mph /  24.5km/h 52% 0in /  0.0mm
17:29 30.2 °F /  -1.0 °C 14 °F /  -10.0 °C 30.3in /  1026.0hPa NE 11mph /  17.7km/h 12.3mph /  19.8km/h 52% 0in /  0.0mm
17:34 30.2 °F /  -1.0 °C 14 °F /  -10.0 °C 30.3in /  1026.0hPa NNE 9.2mph /  14.8km/h 12.3mph /  19.8km/h 52% 0in /  0.0mm
17:39 30.2 °F /  -1.0 °C 14 °F /  -10.0 °C 30.3in /  1026.0hPa ENE 13.9mph /  22.4km/h 13.9mph /  22.4km/h 52% 0in /  0.0mm
17:44 30.2 °F /  -1.0 °C 12.2 °F /  -11.0 °C 30.3in /  1026.0hPa NE 14.1mph /  22.7km/h 17.9mph /  28.8km/h 50% 0in /  0.0mm
17:49 30.4 °F /  -0.9 °C 12.2 °F /  -11.0 °C 30.3in /  1026.0hPa NNE 11.4mph /  18.3km/h 17.9mph /  28.8km/h 50% 0in /  0.0mm
17:54 30.2 °F /  -1.0 °C 12.2 °F /  -11.0 °C 30.3in /  1026.0hPa NE 10.3mph /  16.6km/h 17.7mph /  28.5km/h 50% 0in /  0.0mm
17:59 30 °F /  -1.1 °C 12.2 °F /  -11.0 °C 30.3in /  1026.0hPa ENE 10.5mph /  16.9km/h 17.7mph /  28.5km/h 50% 0in /  0.0mm
18:04 29.7 °F /  -1.3 °C 12.2 °F /  -11.0 °C 30.3in /  1026.0hPa North 8.7mph /  14.0km/h 15.2mph /  24.5km/h 51% 0in /  0.0mm
18:09 29.5 °F /  -1.4 °C 12.2 °F /  -11.0 °C 30.3in /  1026.0hPa NE 14.8mph /  23.8km/h 16.1mph /  25.9km/h 50% 0in /  0.0mm
18:14 29.5 °F /  -1.4 °C 12.2 °F /  -11.0 °C 30.3in /  1026.0hPa ENE 10.1mph /  16.3km/h 16.1mph /  25.9km/h 51% 0in /  0.0mm
18:19 29.5 °F /  -1.4 °C 12.2 °F /  -11.0 °C 30.3in /  1026.0hPa NE 9.4mph /  15.1km/h 16.1mph /  25.9km/h 51% 0in /  0.0mm
18:24 29.5 °F /  -1.4 °C 12.2 °F /  -11.0 °C 30.3in /  1026.0hPa NNE 7.4mph /  11.9km/h 14.8mph /  23.8km/h 51% 0in /  0.0mm
18:29 29.5 °F /  -1.4 °C 12.2 °F /  -11.0 °C 30.3in /  1026.0hPa NE 10.5mph /  16.9km/h 13.6mph /  21.9km/h 51% 0in /  0.0mm
18:34 29.5 °F /  -1.4 °C 12.2 °F /  -11.0 °C 30.3in /  1026.0hPa NNE 10.7mph /  17.2km/h 12.8mph /  20.6km/h 51% 0in /  0.0mm
18:39 29.3 °F /  -1.5 °C 12.2 °F /  -11.0 °C 30.3in /  1026.0hPa NE 12.8mph /  20.6km/h 12.8mph /  20.6km/h 51% 0in /  0.0mm
18:44 29.3 °F /  -1.5 °C 12.2 °F /  -11.0 °C 30.3in /  1026.0hPa NE 14.8mph /  23.8km/h 14.8mph /  23.8km/h 51% 0in /  0.0mm
18:49 29.3 °F /  -1.5 °C 12.2 °F /  -11.0 °C 30.3in /  1026.0hPa NNE 12.1mph /  19.5km/h 16.6mph /  26.7km/h 51% 0in /  0.0mm
18:54 29.3 °F /  -1.5 °C 12.2 °F /  -11.0 °C 30.3in /  1026.0hPa NE 13.2mph /  21.2km/h 16.6mph /  26.7km/h 51% 0in /  0.0mm
18:59 29.1 °F /  -1.6 °C 12.2 °F /  -11.0 °C 30.3in /  1026.0hPa NE 9.8mph /  15.8km/h 13.2mph /  21.2km/h 52% 0in /  0.0mm
19:04 28.9 °F /  -1.7 °C 12.2 °F /  -11.0 °C 30.3in /  1026.0hPa NE 11mph /  17.7km/h 14.1mph /  22.7km/h 52% 0in /  0.0mm
19:09 28.8 °F /  -1.8 °C 12.2 °F /  -11.0 °C 30.3in /  1026.0hPa NNE 7.8mph /  12.6km/h 14.1mph /  22.7km/h 52% 0in /  0.0mm
19:14 28.6 °F /  -1.9 °C 12.2 °F /  -11.0 °C 30.3in /  1026.0hPa NNE 9.4mph /  15.1km/h 13.9mph /  22.4km/h 52% 0in /  0.0mm
19:19 28.6 °F /  -1.9 °C 12.2 °F /  -11.0 °C 30.3in /  1026.0hPa NE 10.3mph /  16.6km/h 13.9mph /  22.4km/h 52% 0in /  0.0mm
19:24 28.8 °F /  -1.8 °C 12.2 °F /  -11.0 °C 30.3in /  1026.0hPa NE 9.2mph /  14.8km/h 13.9mph /  22.4km/h 52% 0in /  0.0mm
19:29 28.8 °F /  -1.8 °C 12.2 °F /  -11.0 °C 30.3in /  1026.0hPa ENE 8.5mph /  13.7km/h 13.9mph /  22.4km/h 52% 0in /  0.0mm
19:34 28.9 °F /  -1.7 °C 12.2 °F /  -11.0 °C 30.3in /  1026.0hPa ENE 8.5mph /  13.7km/h 9.2mph /  14.8km/h 51% 0in /  0.0mm
19:39 29.1 °F /  -1.6 °C 12.2 °F /  -11.0 °C 30.3in /  1026.0hPa NE 12.3mph /  19.8km/h 12.3mph /  19.8km/h 51% 0in /  0.0mm
19:44 28.9 °F /  -1.7 °C 12.2 °F /  -11.0 °C 30.3in /  1024.9hPa ENE 12.5mph /  20.1km/h 13.2mph /  21.2km/h 51% 0in /  0.0mm
19:49 28.8 °F /  -1.8 °C 12.2 °F /  -11.0 °C 30.3in /  1024.9hPa ENE 14.3mph /  23.0km/h 14.3mph /  23.0km/h 51% 0in /  0.0mm
19:54 28.6 °F /  -1.9 °C 12.2 °F /  -11.0 °C 30.3in /  1024.9hPa ENE 11.2mph /  18.0km/h 14.3mph /  23.0km/h 52% 0in /  0.0mm
19:59 28.6 °F /  -1.9 °C 12.2 °F /  -11.0 °C 30.3in /  1026.0hPa NE 8.7mph /  14.0km/h 17.7mph /  28.5km/h 51% 0in /  0.0mm
20:04 28.4 °F /  -2.0 °C 12.2 °F /  -11.0 °C 30.3in /  1026.0hPa NE 9.8mph /  15.8km/h 17.7mph /  28.5km/h 52% 0in /  0.0mm
20:09 28.2 °F /  -2.1 °C 12.2 °F /  -11.0 °C 30.3in /  1026.0hPa NE 10.5mph /  16.9km/h 13.2mph /  21.2km/h 52% 0in /  0.0mm
20:14 28.2 °F /  -2.1 °C 12.2 °F /  -11.0 °C 30.3in /  1026.0hPa NE 10.5mph /  16.9km/h 14.3mph /  23.0km/h 52% 0in /  0.0mm
20:19 28.2 °F /  -2.1 °C 12.2 °F /  -11.0 °C 30.3in /  1026.0hPa ENE 10.3mph /  16.6km/h 14.3mph /  23.0km/h 52% 0in /  0.0mm
20:24 28.2 °F /  -2.1 °C 12.2 °F /  -11.0 °C 30.3in /  1026.0hPa ENE 10.1mph /  16.3km/h 12.8mph /  20.6km/h 52% 0in /  0.0mm
20:29 28 °F /  -2.2 °C 12.2 °F /  -11.0 °C 30.3in /  1024.9hPa NE 8.7mph /  14.0km/h 13mph /  20.9km/h 53% 0in /  0.0mm
20:35 27.9 °F /  -2.3 °C 12.2 °F /  -11.0 °C 30.3in /  1024.9hPa ENE 8.5mph /  13.7km/h 13mph /  20.9km/h 53% 0in /  0.0mm
20:40 27.9 °F /  -2.3 °C 12.2 °F /  -11.0 °C 30.3in /  1024.9hPa NNE 9.8mph /  15.8km/h 13mph /  20.9km/h 53% 0in /  0.0mm
20:45 27.7 °F /  -2.4 °C 12.2 °F /  -11.0 °C 30.3in /  1024.9hPa NNE 7.6mph /  12.2km/h 12.5mph /  20.1km/h 53% 0in /  0.0mm
20:50 27.5 °F /  -2.5 °C 12.2 °F /  -11.0 °C 30.3in /  1024.9hPa NE 10.1mph /  16.3km/h 12.8mph /  20.6km/h 53% 0in /  0.0mm
20:55 27.5 °F /  -2.5 °C 12.2 °F /  -11.0 °C 30.3in /  1024.9hPa NNE 8.7mph /  14.0km/h 12.8mph /  20.6km/h 54% 0in /  0.0mm
21:00 27.5 °F /  -2.5 °C 12.2 °F /  -11.0 °C 30.3in /  1024.9hPa NE 10.3mph /  16.6km/h 12.3mph /  19.8km/h 54% 0in /  0.0mm
21:05 27.3 °F /  -2.6 °C 12.2 °F /  -11.0 °C 30.3in /  1024.9hPa NE 12.3mph /  19.8km/h 15.2mph /  24.5km/h 54% 0in /  0.0mm
21:10 27.3 °F /  -2.6 °C 12.2 °F /  -11.0 °C 30.3in /  1024.9hPa NE 10.3mph /  16.6km/h 15.2mph /  24.5km/h 54% 0in /  0.0mm
21:15 27.1 °F /  -2.7 °C 12.2 °F /  -11.0 °C 30.3in /  1026.0hPa NE 10.5mph /  16.9km/h 12.8mph /  20.6km/h 54% 0in /  0.0mm
21:20 27 °F /  -2.8 °C 12.2 °F /  -11.0 °C 30.3in /  1026.0hPa NE 12.3mph /  19.8km/h 12.3mph /  19.8km/h 55% 0in /  0.0mm
21:25 27 °F /  -2.8 °C 12.2 °F /  -11.0 °C 30.3in /  1026.0hPa NNE 8.5mph /  13.7km/h 13mph /  20.9km/h 55% 0in /  0.0mm
21:30 26.8 °F /  -2.9 °C 12.2 °F /  -11.0 °C 30.3in /  1026.0hPa NE 8.9mph /  14.3km/h 8.9mph /  14.3km/h 55% 0in /  0.0mm
21:35 26.6 °F /  -3.0 °C 12.2 °F /  -11.0 °C 30.3in /  1026.0hPa NNW 6mph /  9.7km/h 12.1mph /  19.5km/h 56% 0in /  0.0mm
21:40 26.4 °F /  -3.1 °C 12.2 °F /  -11.0 °C 30.3in /  1026.0hPa NNE 7.6mph /  12.2km/h 12.1mph /  19.5km/h 57% 0in /  0.0mm
21:45 26.1 °F /  -3.3 °C 12.2 °F /  -11.0 °C 30.3in /  1024.9hPa NE 5.4mph /  8.7km/h 8.7mph /  14.0km/h 58% 0in /  0.0mm
21:50 25.9 °F /  -3.4 °C 12.2 °F /  -11.0 °C 30.3in /  1024.9hPa NE 8.5mph /  13.7km/h 9.4mph /  15.1km/h 59% 0in /  0.0mm
21:55 25.7 °F /  -3.5 °C 12.2 °F /  -11.0 °C 30.3in /  1024.9hPa NE 8.5mph /  13.7km/h 10.7mph /  17.2km/h 60% 0in /  0.0mm
22:00 25.7 °F /  -3.5 °C 12.2 °F /  -11.0 °C 30.3in /  1026.0hPa NNE 7.8mph /  12.6km/h 10.7mph /  17.2km/h 61% 0in /  0.0mm
22:05 25.7 °F /  -3.5 °C 12.2 °F /  -11.0 °C 30.3in /  1026.0hPa NE 7.6mph /  12.2km/h 10.5mph /  16.9km/h 61% 0in /  0.0mm
22:11 25.9 °F /  -3.4 °C 14 °F /  -10.0 °C 30.3in /  1026.0hPa NE 8.1mph /  13.0km/h 10.3mph /  16.6km/h 61% 0in /  0.0mm
22:16 25.9 °F /  -3.4 °C 14 °F /  -10.0 °C 30.3in /  1026.0hPa NNE 8.5mph /  13.7km/h 10.7mph /  17.2km/h 61% 0in /  0.0mm
22:26 25.9 °F /  -3.4 °C 14 °F /  -10.0 °C 30.3in /  1026.0hPa NE 7.6mph /  12.2km/h 10.3mph /  16.6km/h 60% 0in /  0.0mm
22:31 25.9 °F /  -3.4 °C 14 °F /  -10.0 °C 30.3in /  1024.9hPa NE 9.8mph /  15.8km/h 10.3mph /  16.6km/h 60% 0in /  0.0mm
22:36 25.9 °F /  -3.4 °C 14 °F /  -10.0 °C 30.3in /  1024.9hPa NE 10.3mph /  16.6km/h 10.7mph /  17.2km/h 60% 0in /  0.0mm
22:41 25.9 °F /  -3.4 °C 14 °F /  -10.0 °C 30.3in /  1024.9hPa NE 6.5mph /  10.5km/h 10.7mph /  17.2km/h 60% 0in /  0.0mm
22:46 25.9 °F /  -3.4 °C 14 °F /  -10.0 °C 30.3in /  1024.9hPa NNE 8.7mph /  14.0km/h 12.5mph /  20.1km/h 60% 0in /  0.0mm
22:51 25.9 °F /  -3.4 °C 14 °F /  -10.0 °C 30.3in /  1024.9hPa NNE 7.8mph /  12.6km/h 12.5mph /  20.1km/h 60% 0in /  0.0mm
22:56 25.9 °F /  -3.4 °C 14 °F /  -10.0 °C 30.3in /  1024.9hPa NNE 7.6mph /  12.2km/h 10.5mph /  16.9km/h 60% 0in /  0.0mm
23:01 25.7 °F /  -3.5 °C 12.2 °F /  -11.0 °C 30.3in /  1024.9hPa ENE 7.6mph /  12.2km/h 10.5mph /  16.9km/h 60% 0in /  0.0mm
23:06 25.7 °F /  -3.5 °C 12.2 °F /  -11.0 °C 30.3in /  1024.9hPa NE 8.1mph /  13.0km/h 10.5mph /  16.9km/h 60% 0in /  0.0mm
23:11 25.5 °F /  -3.6 °C 12.2 °F /  -11.0 °C 30.3in /  1024.9hPa NE 8.1mph /  13.0km/h 10.3mph /  16.6km/h 60% 0in /  0.0mm
23:17 25.3 °F /  -3.7 °C 12.2 °F /  -11.0 °C 30.3in /  1024.9hPa NNE 4.9mph /  7.9km/h 10.3mph /  16.6km/h 61% 0in /  0.0mm
23:22 25 °F /  -3.9 °C 12.2 °F /  -11.0 °C 30.3in /  1024.9hPa NE 5.8mph /  9.3km/h 7.6mph /  12.2km/h 61% 0in /  0.0mm
23:27 24.8 °F /  -4.0 °C 12.2 °F /  -11.0 °C 30.3in /  1024.9hPa NNE 6.3mph /  10.1km/h 7.8mph /  12.6km/h 63% 0in /  0.0mm
23:32 24.6 °F /  -4.1 °C 12.2 °F /  -11.0 °C 30.3in /  1024.9hPa NE 7.4mph /  11.9km/h 8.1mph /  13.0km/h 63% 0in /  0.0mm
23:36 24.6 °F /  -4.1 °C 14 °F /  -10.0 °C 30.3in /  1024.9hPa NE 7.6mph /  12.2km/h 8.5mph /  13.7km/h 64% 0in /  0.0mm
23:42 24.4 °F /  -4.2 °C 14 °F /  -10.0 °C 30.3in /  1024.9hPa NNE 6.3mph /  10.1km/h 8.5mph /  13.7km/h 64% 0in /  0.0mm
23:47 24.3 °F /  -4.3 °C 12.2 °F /  -11.0 °C 30.3in /  1024.9hPa North 6.3mph /  10.1km/h 7.4mph /  11.9km/h 64% 0in /  0.0mm
23:52 24.1 °F /  -4.4 °C 14 °F /  -10.0 °C 30.3in /  1024.9hPa NE 5.8mph /  9.3km/h 7.2mph /  11.6km/h 65% 0in /  0.0mm
23:57 23.9 °F /  -4.5 °C 12.2 °F /  -11.0 °C 30.3in /  1024.9hPa NNE 3.8mph /  6.1km/h 7.2mph /  11.6km/h 65% 0in /  0.0mm
Données Historique de Météo Turbie

Mise a jour : 23/06/2018 12:03:12
Généré par Cumulus 1.9.4 (1099)